createdAt,value
2022-09-02T00:01:31.940Z,627
2022-09-02T00:06:50.153Z,620
2022-09-02T00:12:08.349Z,599
2022-09-02T00:17:27.117Z,575
2022-09-02T00:22:45.622Z,573
2022-09-02T00:28:04.075Z,567
2022-09-02T00:33:25.308Z,615
2022-09-02T00:38:44.086Z,588
2022-09-02T00:44:02.285Z,615
2022-09-02T00:49:20.753Z,701
2022-09-02T00:54:39.579Z,762
2022-09-02T00:59:58.333Z,778
2022-09-02T01:05:16.541Z,778
2022-09-02T01:10:35.044Z,808
2022-09-02T01:15:53.265Z,828
2022-09-02T01:21:11.302Z,812
2022-09-02T01:26:30.071Z,811
2022-09-02T01:31:48.329Z,846
2022-09-02T01:37:06.728Z,820
2022-09-02T01:42:25.233Z,719
2022-09-02T01:47:44.010Z,635
2022-09-02T01:53:02.779Z,647
2022-09-02T01:58:22.516Z,557
2022-09-02T02:03:40.982Z,526
2022-09-02T02:08:59.750Z,521
2022-09-02T02:14:18.258Z,563
2022-09-02T02:19:36.988Z,583
2022-09-02T02:24:55.472Z,569
2022-09-02T02:30:13.951Z,580
2022-09-02T02:35:32.425Z,638
2022-09-02T02:40:50.996Z,677
2022-09-02T02:46:09.543Z,660
2022-09-02T02:51:27.809Z,669
2022-09-02T02:56:46.017Z,640
2022-09-02T03:02:04.335Z,581
2022-09-02T03:07:22.760Z,601
2022-09-02T03:12:40.958Z,640
2022-09-02T03:17:59.456Z,646
2022-09-02T03:23:18.247Z,626
2022-09-02T03:28:36.618Z,634
2022-09-02T03:33:56.238Z,671
2022-09-02T03:39:14.695Z,691
2022-09-02T03:44:33.439Z,692
2022-09-02T03:49:51.658Z,691
2022-09-02T03:54:54.801Z,676
2022-09-02T04:00:13.582Z,690
2022-09-02T04:05:34.071Z,698
2022-09-02T04:10:52.558Z,710
2022-09-02T04:16:11.401Z,665
2022-09-02T04:21:29.842Z,645
2022-09-02T04:26:48.015Z,639
2022-09-02T04:32:06.220Z,603
2022-09-02T04:37:24.991Z,622
2022-09-02T04:42:43.473Z,632
2022-09-02T04:48:02.232Z,585
2022-09-02T04:53:21.002Z,573
2022-09-02T04:58:38.928Z,546
2022-09-02T05:03:57.162Z,552
2022-09-02T05:09:15.337Z,567
2022-09-02T05:14:34.112Z,564
2022-09-02T05:19:52.863Z,555
2022-09-02T05:25:11.336Z,528
2022-09-02T05:30:29.536Z,509
2022-09-02T05:35:47.713Z,498
2022-09-02T05:41:08.307Z,489
2022-09-02T05:46:26.510Z,471
2022-09-02T05:51:44.516Z,465
2022-09-02T05:57:02.724Z,464
2022-09-02T06:02:21.322Z,491
2022-09-02T06:07:39.876Z,484
2022-09-02T06:12:58.604Z,487
2022-09-02T06:18:17.130Z,490
2022-09-02T06:23:37.386Z,498
2022-09-02T06:28:55.869Z,498
2022-09-02T06:34:14.080Z,475
2022-09-02T06:39:32.625Z,473
2022-09-02T06:44:51.372Z,478
2022-09-02T06:50:09.565Z,488
2022-09-02T06:55:27.481Z,504
2022-09-02T07:00:46.279Z,514
2022-09-02T07:06:04.462Z,523
2022-09-02T07:11:23.228Z,528
2022-09-02T07:16:41.153Z,512
2022-09-02T07:21:59.491Z,515
2022-09-02T07:27:18.256Z,527
2022-09-02T07:32:36.735Z,530
2022-09-02T07:37:39.059Z,530
2022-09-02T07:48:16.081Z,506
2022-09-02T07:53:34.846Z,524
2022-09-02T07:58:53.047Z,494
2022-09-02T08:04:10.974Z,471
2022-09-02T08:09:29.523Z,471
2022-09-02T08:14:48.519Z,470
2022-09-02T08:20:11.757Z,466
2022-09-02T08:25:31.096Z,475
2022-09-02T08:30:49.297Z,470
2022-09-02T08:36:07.809Z,465
2022-09-02T08:41:26.267Z,469
2022-09-02T08:46:44.176Z,472
2022-09-02T08:52:02.943Z,490
2022-09-02T08:57:21.460Z,484
2022-09-02T09:02:43.338Z,511
2022-09-02T09:08:07.596Z,523
2022-09-02T09:13:32.557Z,544
2022-09-02T09:18:51.042Z,543
2022-09-02T09:24:09.520Z,535
2022-09-02T09:29:27.753Z,529
2022-09-02T09:34:46.372Z,504
2022-09-02T09:40:04.630Z,503
2022-09-02T09:45:23.450Z,485
2022-09-02T09:50:41.759Z,483
2022-09-02T09:56:00.215Z,487
2022-09-02T10:01:18.482Z,482
2022-09-02T10:06:36.741Z,467
2022-09-02T10:11:55.513Z,476
2022-09-02T10:17:14.027Z,473
2022-09-02T10:22:38.002Z,473
2022-09-02T10:28:18.477Z,464
2022-09-02T10:33:36.658Z,445
2022-09-02T10:38:55.120Z,440
2022-09-02T10:44:13.907Z,448
2022-09-02T10:49:32.086Z,455
2022-09-02T10:54:50.593Z,458
2022-09-02T11:00:08.806Z,457
2022-09-02T11:05:27.570Z,463
2022-09-02T11:10:45.720Z,469
2022-09-02T11:16:04.226Z,472
2022-09-02T11:21:22.655Z,474
2022-09-02T11:26:41.122Z,451
2022-09-02T11:31:59.876Z,430
2022-09-02T11:37:19.775Z,421
2022-09-02T11:42:38.350Z,414
2022-09-02T11:47:56.961Z,413
2022-09-02T11:53:16.984Z,412
2022-09-02T11:58:35.469Z,409
2022-09-02T12:04:27.449Z,407
2022-09-02T12:10:26.860Z,426
2022-09-02T12:15:45.657Z,443
2022-09-02T12:21:05.529Z,449
2022-09-02T12:26:23.561Z,446
2022-09-02T12:31:44.361Z,438
2022-09-02T12:37:02.926Z,445
2022-09-02T12:42:21.106Z,440
2022-09-02T12:47:39.920Z,445
2022-09-02T12:52:58.381Z,442
2022-09-02T12:58:16.871Z,444
2022-09-02T13:03:35.627Z,441
2022-09-02T13:08:54.134Z,446
2022-09-02T13:14:12.592Z,442
2022-09-02T13:19:31.405Z,445
2022-09-02T13:24:49.956Z,435
2022-09-02T13:30:08.712Z,443
2022-09-02T13:35:26.929Z,449
2022-09-02T13:40:46.097Z,446
2022-09-02T13:46:04.597Z,442
2022-09-02T13:51:23.353Z,427
2022-09-02T13:56:41.848Z,420
2022-09-02T14:02:00.339Z,517
2022-09-02T14:07:18.763Z,493
2022-09-02T14:12:37.284Z,480
2022-09-02T19:14:23.425Z,523
2022-09-02T19:19:42.189Z,518
2022-09-02T19:25:00.408Z,516
2022-09-02T19:30:18.994Z,515
2022-09-02T19:35:37.456Z,515
2022-09-02T19:40:55.944Z,512
2022-09-02T19:46:35.106Z,508
2022-09-02T19:53:29.631Z,505
2022-09-02T19:58:48.482Z,503
2022-09-02T20:04:06.965Z,502
2022-09-02T20:09:25.437Z,501
